Time,TemperatureF,DewpointF,PressureIn,WindDirection,WindDirectionDegrees,WindSpeedMPH,WindSpeedGustMPH,Humidity,HourlyPrecipIn,Conditions,Clouds,dailyrainin,SolarRadiationWatts/m^2,SoftwareType,DateUTC
2013-02-10 00:01:00,25.0,24.0,-100.00,East,86,4.0,6.0,95,0.00,,,-99.99,0.000000,,2013-02-10 07:01:00,
2013-02-10 00:11:00,25.0,24.0,-100.00,East,91,3.0,4.0,96,0.00,,,-99.99,0.000000,,2013-02-10 07:11:00,
2013-02-10 00:21:00,25.0,24.0,-100.00,ESE,108,4.0,5.0,96,0.00,,,-99.99,0.000000,,2013-02-10 07:21:00,
2013-02-10 00:31:00,25.0,24.0,-100.00,ESE,103,3.0,3.0,96,0.00,,,-99.99,0.000000,,2013-02-10 07:31:00,
2013-02-10 00:41:00,25.0,24.0,-100.00,ESE,111,3.0,3.0,96,0.00,,,-99.99,0.000000,,2013-02-10 07:41:00,
2013-02-10 00:51:00,25.0,24.0,-100.00,ESE,116,3.0,4.0,96,0.00,,,-99.99,0.000000,,2013-02-10 07:51:00,
2013-02-10 01:01:00,25.0,24.0,-100.00,SSW,196,2.0,5.0,96,0.00,,,-99.99,0.000000,,2013-02-10 08:01:00,
2013-02-10 01:11:00,25.0,24.0,-100.00,SW,220,3.0,5.0,96,0.00,,,-99.99,0.000000,,2013-02-10 08:11:00,
2013-02-10 01:21:00,25.0,24.0,-100.00,SSW,195,0.0,2.0,96,0.00,,,-99.99,0.000000,,2013-02-10 08:21:00,
2013-02-10 01:31:00,25.0,24.0,-100.00,SSE,147,2.0,4.0,95,0.00,,,-99.99,0.000000,,2013-02-10 08:31:00,
2013-02-10 01:42:00,25.0,24.0,-100.00,South,177,1.0,3.0,95,0.00,,,-99.99,0.000000,,2013-02-10 08:42:00,
2013-02-10 01:52:00,25.0,23.0,-100.00,SW,221,1.0,4.0,95,0.00,,,-99.99,0.000000,,2013-02-10 08:52:00,
2013-02-10 02:01:00,25.0,23.0,-100.00,WSW,249,3.0,7.0,95,0.00,,,-99.99,0.000000,,2013-02-10 09:01:00,
2013-02-10 02:11:00,25.0,23.0,-100.00,WSW,243,4.0,7.0,94,0.00,,,-99.99,0.000000,,2013-02-10 09:11:00,
2013-02-10 02:21:00,25.0,23.0,-100.00,WSW,244,5.0,9.0,94,0.00,,,-99.99,0.000000,,2013-02-10 09:21:00,
2013-02-10 02:31:00,24.0,22.0,-100.00,WSW,241,7.0,10.0,93,0.00,,,-99.99,0.000000,,2013-02-10 09:31:00,
2013-02-10 02:41:00,24.0,23.0,-100.00,WSW,245,7.0,11.0,93,0.00,,,-99.99,0.000000,,2013-02-10 09:41:00,
2013-02-10 02:50:00,25.0,23.0,-100.00,WSW,248,6.0,8.0,93,0.00,,,-99.99,0.000000,,2013-02-10 09:50:00,
2013-02-10 02:51:00,24.0,23.0,-100.00,WSW,244,6.0,10.0,93,0.00,,,-99.99,0.000000,,2013-02-10 09:51:00,
2013-02-10 03:01:00,24.0,22.0,-100.00,WSW,243,6.0,8.0,93,0.00,,,-99.99,0.000000,,2013-02-10 10:01:00,
2013-02-10 03:11:00,25.0,23.0,-100.00,WSW,248,6.0,8.0,93,0.00,,,-99.99,0.000000,,2013-02-10 10:11:00,
2013-02-10 03:21:00,25.0,23.0,-100.00,WSW,248,6.0,8.0,93,0.00,,,-99.99,0.000000,,2013-02-10 10:21:00,
2013-02-10 03:31:00,25.0,23.0,-100.00,WSW,248,6.0,8.0,93,0.00,,,-99.99,0.000000,,2013-02-10 10:31:00,
2013-02-10 03:41:00,25.0,23.0,-100.00,WSW,248,6.0,8.0,93,0.00,,,-99.99,0.000000,,2013-02-10 10:41:00,
2013-02-10 04:22:00,24.0,22.0,-100.00,SW,236,4.0,7.0,91,0.00,,,-99.99,0.000000,,2013-02-10 11:22:00,
2013-02-10 04:32:00,24.0,22.0,-100.00,SW,232,3.0,6.0,91,0.00,,,-99.99,0.000000,,2013-02-10 11:32:00,
2013-02-10 04:42:00,24.0,22.0,-100.00,SSW,203,2.0,3.0,92,0.00,,,-99.99,0.000000,,2013-02-10 11:42:00,
2013-02-10 04:52:00,23.0,22.0,-100.00,SE,128,2.0,4.0,92,0.00,,,-99.99,0.000000,,2013-02-10 11:52:00,
2013-02-10 05:01:00,23.0,21.0,-100.00,SE,145,2.0,3.0,92,0.00,,,-99.99,0.000000,,2013-02-10 12:01:00,
2013-02-10 05:12:00,23.0,21.0,-100.00,ENE,69,1.0,3.0,93,0.00,,,-99.99,0.000000,,2013-02-10 12:12:00,
2013-02-10 05:21:00,23.0,21.0,-100.00,North,-999,-999.0,0.0,93,0.00,,,-99.99,0.000000,,2013-02-10 12:21:00,
2013-02-10 05:32:00,23.0,22.0,-100.00,ESE,114,2.0,2.0,94,0.00,,,-99.99,0.000000,,2013-02-10 12:32:00,
2013-02-10 05:41:00,23.0,21.0,-100.00,SSE,165,2.0,3.0,94,0.00,,,-99.99,0.000000,,2013-02-10 12:41:00,
2013-02-10 05:52:00,23.0,21.0,-100.00,South,171,1.0,2.0,94,0.00,,,-99.99,0.000000,,2013-02-10 12:52:00,
2013-02-10 06:02:00,23.0,21.0,-100.00,North,-999,-999.0,0.0,94,0.00,,,-99.99,0.000000,,2013-02-10 13:02:00,
2013-02-10 06:11:00,23.0,21.0,-100.00,North,-999,-999.0,0.0,94,0.00,,,-99.99,0.000000,,2013-02-10 13:11:00,
2013-02-10 06:21:00,23.0,21.0,-100.00,North,-999,-999.0,0.0,95,0.00,,,-99.99,0.000000,,2013-02-10 13:21:00,
2013-02-10 06:31:00,23.0,21.0,-100.00,North,-999,-999.0,0.0,95,0.00,,,-99.99,0.000000,,2013-02-10 13:31:00,
2013-02-10 06:41:00,22.0,21.0,-100.00,ESE,112,1.0,3.0,95,0.00,,,-99.99,0.000000,,2013-02-10 13:41:00,
2013-02-10 06:51:00,22.0,21.0,-100.00,ESE,117,1.0,2.0,95,0.00,,,-99.99,0.000000,,2013-02-10 13:51:00,
2013-02-10 07:01:00,22.0,21.0,-100.00,North,-999,-999.0,0.0,95,0.00,,,-99.99,0.000000,,2013-02-10 14:01:00,
2013-02-10 07:11:00,22.0,21.0,-100.00,North,-999,-999.0,0.0,95,0.00,,,-99.99,0.000000,,2013-02-10 14:11:00,
2013-02-10 07:21:00,22.0,21.0,-100.00,North,-999,-999.0,0.0,95,0.00,,,-99.99,0.000000,,2013-02-10 14:21:00,
2013-02-10 07:31:00,22.0,21.0,-100.00,North,-999,-999.0,0.0,95,0.00,,,-99.99,0.000000,,2013-02-10 14:31:00,
2013-02-10 07:41:00,23.0,21.0,-100.00,North,-999,-999.0,0.0,95,0.00,,,-99.99,0.000000,,2013-02-10 14:41:00,
2013-02-10 07:50:00,23.0,21.0,-100.00,SSW,213,1.0,2.0,94,0.00,,,-99.99,8.000000,,2013-02-10 14:50:00,
2013-02-10 07:51:00,22.0,21.0,-100.00,North,-999,-999.0,0.0,95,0.00,,,-99.99,2.000000,,2013-02-10 14:51:00,
2013-02-10 08:01:00,23.0,21.0,-100.00,North,-999,-999.0,0.0,95,0.00,,,-99.99,5.000000,,2013-02-10 15:01:00,
2013-02-10 08:11:00,23.0,21.0,-100.00,SSW,213,1.0,2.0,94,0.00,,,-99.99,8.000000,,2013-02-10 15:11:00,
2013-02-10 08:21:00,23.0,21.0,-100.00,SSW,213,1.0,2.0,94,0.00,,,-99.99,8.000000,,2013-02-10 15:21:00,
2013-02-10 08:31:00,23.0,21.0,-100.00,SSW,213,1.0,2.0,94,0.00,,,-99.99,8.000000,,2013-02-10 15:31:00,
2013-02-10 08:41:00,23.0,21.0,-100.00,SSW,213,1.0,2.0,94,0.00,,,-99.99,8.000000,,2013-02-10 15:41:00,
2013-02-10 09:22:00,24.0,22.0,-100.00,ESE,105,2.0,2.0,93,0.00,,,-99.99,18.000000,,2013-02-10 16:22:00,
2013-02-10 09:32:00,25.0,23.0,-100.00,SE,128,0.0,2.0,93,0.00,,,-99.99,24.000000,,2013-02-10 16:32:00,
2013-02-10 09:42:00,25.0,23.0,-100.00,North,-999,-999.0,0.0,92,0.00,,,-99.99,28.000000,,2013-02-10 16:42:00,
2013-02-10 09:52:00,26.0,24.0,-100.00,North,-999,-999.0,0.0,93,0.00,,,-99.99,27.000000,,2013-02-10 16:52:00,
2013-02-10 10:01:00,27.0,24.0,-100.00,North,-999,-999.0,0.0,91,0.00,,,-99.99,27.000000,,2013-02-10 17:01:00,
2013-02-10 10:11:00,26.0,23.0,-100.00,SE,125,1.0,2.0,90,0.00,,,-99.99,39.000000,,2013-02-10 17:11:00,
2013-02-10 10:21:00,28.0,25.0,-100.00,North,-999,-999.0,0.0,90,0.00,,,-99.99,39.000000,,2013-02-10 17:21:00,
2013-02-10 10:31:00,26.0,22.0,-100.00,SSW,208,1.0,4.0,85,0.00,,,-99.99,35.000000,,2013-02-10 17:31:00,
2013-02-10 10:42:00,25.0,22.0,-100.00,NNW,329,3.0,4.0,88,0.00,,,-99.99,40.000000,,2013-02-10 17:42:00,
2013-02-10 10:52:00,25.0,23.0,-100.00,NW,317,2.0,3.0,89,0.00,,,-99.99,44.000000,,2013-02-10 17:52:00,
2013-02-10 11:01:00,26.0,23.0,-100.00,SW,219,0.0,2.0,88,0.00,,,-99.99,44.000000,,2013-02-10 18:01:00,
2013-02-10 11:11:00,27.0,24.0,-100.00,ESE,115,1.0,2.0,88,0.00,,,-99.99,72.000000,,2013-02-10 18:11:00,
2013-02-10 11:21:00,28.0,25.0,-100.00,East,95,0.0,1.0,86,0.00,,,-99.99,86.000000,,2013-02-10 18:21:00,
2013-02-10 11:31:00,29.0,24.0,-100.00,East,99,1.0,3.0,84,0.00,,,-99.99,124.000000,,2013-02-10 18:31:00,
2013-02-10 11:41:00,29.0,24.0,-100.00,East,82,3.0,4.0,82,0.00,,,-99.99,124.000000,,2013-02-10 18:41:00,
2013-02-10 11:51:00,29.0,24.0,-100.00,East,82,3.0,4.0,82,0.00,,,-99.99,124.000000,,2013-02-10 18:51:00,
2013-02-10 12:01:00,29.0,24.0,-100.00,East,95,3.0,4.0,82,0.00,,,-99.99,164.000000,,2013-02-10 19:01:00,
2013-02-10 12:11:00,28.0,23.0,-100.00,ESE,108,3.0,4.0,82,0.00,,,-99.99,212.000000,,2013-02-10 19:11:00,
2013-02-10 12:21:00,28.0,23.0,-100.00,East,98,2.0,3.0,80,0.03,,,-99.99,217.000000,,2013-02-10 19:21:00,
2013-02-10 12:31:00,27.0,21.0,-100.00,WSW,247,3.0,4.0,78,0.03,,,-99.99,223.000000,,2013-02-10 19:31:00,
2013-02-10 12:42:00,28.0,23.0,-100.00,East,90,2.0,3.0,82,0.03,,,-99.99,402.000000,,2013-02-10 19:42:00,
2013-02-10 12:51:00,30.0,24.0,-100.00,East,80,2.0,3.0,77,0.03,,,-99.99,514.000000,,2013-02-10 19:51:00,
2013-02-10 13:01:00,31.0,24.0,-100.00,East,88,2.0,3.0,74,0.03,,,-99.99,523.000000,,2013-02-10 20:01:00,
2013-02-10 14:32:00,33.0,-58.0,-100.00,East,79,4.0,5.0,1,0.00,,,-99.99,560.000000,,2013-02-10 21:32:00,
2013-02-10 16:11:00,-39.0,-97.0,-100.00,ENE,73,0.0,2.0,0,0.00,,,-99.99,120.000000,,2013-02-10 23:11:00,
2013-02-10 16:21:00,-39.0,-97.0,-100.00,ESE,103,1.0,3.0,0,0.00,,,-99.99,111.000000,,2013-02-10 23:21:00,
2013-02-10 16:31:00,-39.0,-97.0,-100.00,WNW,288,1.0,3.0,0,0.00,,,-99.99,152.000000,,2013-02-10 23:31:00,
2013-02-10 16:41:00,-39.0,-97.0,-100.00,SW,216,1.0,3.0,0,0.00,,,-99.99,113.000000,,2013-02-10 23:41:00,
2013-02-10 16:52:00,-39.0,-97.0,-100.00,South,187,0.0,1.0,0,0.00,,,-99.99,89.000000,,2013-02-10 23:52:00,
2013-02-10 17:01:00,-39.0,-97.0,-100.00,SE,145,0.0,2.0,0,0.00,,,-99.99,86.000000,,2013-02-11 00:01:00,
2013-02-10 17:11:00,-39.0,-97.0,-100.00,North,-999,-999.0,0.0,0,0.00,,,-99.99,67.000000,,2013-02-11 00:11:00,
2013-02-10 17:21:00,-39.0,-97.0,-100.00,WNW,303,0.0,1.0,0,0.00,,,-99.99,55.000000,,2013-02-11 00:21:00,
2013-02-10 17:31:00,-39.0,-97.0,-100.00,NW,321,2.0,4.0,0,0.00,,,-99.99,48.000000,,2013-02-11 00:31:00,
2013-02-10 17:41:00,-39.0,-97.0,-100.00,NW,312,4.0,6.0,0,0.00,,,-99.99,31.000000,,2013-02-11 00:41:00,
2013-02-10 17:51:00,-39.0,-97.0,-100.00,SW,232,5.0,7.0,0,0.00,,,-99.99,18.000000,,2013-02-11 00:51:00,
2013-02-10 18:01:00,-39.0,-97.0,-100.00,SW,234,4.0,7.0,0,0.00,,,-99.99,10.000000,,2013-02-11 01:01:00,
2013-02-10 18:11:00,-39.0,-97.0,-100.00,WNW,301,4.0,6.0,0,0.00,,,-99.99,5.000000,,2013-02-11 01:11:00,
2013-02-10 18:21:00,-39.0,-97.0,-100.00,WNW,301,4.0,6.0,0,0.00,,,-99.99,5.000000,,2013-02-11 01:21:00,
2013-02-10 19:21:00,-39.0,-97.0,-100.00,West,276,3.0,5.0,0,0.00,,,-99.99,0.000000,,2013-02-11 02:21:00,
2013-02-10 19:32:00,-39.0,-97.0,-100.00,SSE,159,2.0,3.0,0,0.00,,,-99.99,0.000000,,2013-02-11 02:32:00,
2013-02-10 19:42:00,-39.0,-97.0,-100.00,South,179,2.0,5.0,0,0.00,,,-99.99,0.000000,,2013-02-11 02:42:00,
2013-02-10 19:52:00,-39.0,-97.0,-100.00,South,174,1.0,3.0,0,0.00,,,-99.99,0.000000,,2013-02-11 02:52:00,
2013-02-10 20:01:00,-39.0,-97.0,-100.00,SSE,158,2.0,4.0,0,0.00,,,-99.99,0.000000,,2013-02-11 03:01:00,
2013-02-10 20:11:00,-39.0,-97.0,-100.00,East,98,3.0,4.0,0,0.00,,,-99.99,0.000000,,2013-02-11 03:11:00,
2013-02-10 20:21:00,-39.0,-97.0,-100.00,ESE,112,3.0,5.0,0,0.00,,,-99.99,0.000000,,2013-02-11 03:21:00,
2013-02-10 20:31:00,-39.0,-97.0,-100.00,SE,124,3.0,5.0,0,0.00,,,-99.99,0.000000,,2013-02-11 03:31:00,
2013-02-10 20:41:00,-39.0,-97.0,-100.00,East,94,3.0,7.0,0,0.00,,,-99.99,0.000000,,2013-02-11 03:41:00,
2013-02-10 20:51:00,-39.0,-97.0,-100.00,SE,125,4.0,7.0,0,0.00,,,-99.99,0.000000,,2013-02-11 03:51:00,
2013-02-10 21:01:00,-39.0,-97.0,-100.00,SE,133,3.0,7.0,0,0.00,,,-99.99,0.000000,,2013-02-11 04:01:00,
2013-02-10 21:11:00,-39.0,-97.0,-100.00,SSE,155,2.0,4.0,0,0.00,,,-99.99,0.000000,,2013-02-11 04:11:00,
2013-02-10 21:21:00,-39.0,-97.0,-100.00,SE,124,3.0,5.0,0,0.00,,,-99.99,0.000000,,2013-02-11 04:21:00,
2013-02-10 21:31:00,-39.0,-97.0,-100.00,ESE,112,2.0,4.0,0,0.00,,,-99.99,0.000000,,2013-02-11 04:31:00,
2013-02-10 21:41:00,-39.0,-97.0,-100.00,SE,136,3.0,5.0,0,0.00,,,-99.99,0.000000,,2013-02-11 04:41:00,
2013-02-10 21:51:00,-39.0,-97.0,-100.00,ESE,114,2.0,4.0,0,0.00,,,-99.99,0.000000,,2013-02-11 04:51:00,
2013-02-10 22:01:00,-39.0,-97.0,-100.00,South,178,3.0,5.0,0,0.00,,,-99.99,0.000000,,2013-02-11 05:01:00,
2013-02-10 22:11:00,-39.0,-97.0,-100.00,SSW,206,1.0,3.0,0,0.00,,,-99.99,0.000000,,2013-02-11 05:11:00,
2013-02-10 22:22:00,-39.0,-97.0,-100.00,ENE,70,2.0,4.0,0,0.00,,,-99.99,0.000000,,2013-02-11 05:22:00,
2013-02-10 22:31:00,-39.0,-97.0,-100.00,ENE,70,2.0,4.0,0,0.00,,,-99.99,0.000000,,2013-02-11 05:31:00,
2013-02-10 22:41:00,-39.0,-97.0,-100.00,ENE,75,2.0,3.0,0,0.00,,,-99.99,0.000000,,2013-02-11 05:41:00,
2013-02-10 22:52:00,-39.0,-97.0,-100.00,East,91,2.0,5.0,0,0.00,,,-99.99,0.000000,,2013-02-11 05:52:00,
2013-02-10 23:01:00,-39.0,-97.0,-100.00,East,91,3.0,6.0,0,0.00,,,-99.99,0.000000,,2013-02-11 06:01:00,
2013-02-10 23:11:00,-39.0,-97.0,-100.00,East,80,1.0,3.0,0,0.00,,,-99.99,0.000000,,2013-02-11 06:11:00,
2013-02-10 23:21:00,-39.0,-97.0,-100.00,East,80,1.0,3.0,0,0.00,,,-99.99,0.000000,,2013-02-11 06:21:00,